Time;durP1;ratioP1;P1;durP2;ratioP2;P2;SDS_P1;SDS_P2;PMS_P1;PMS_P2;Temp;Humidity;BMP_temperature;BMP_pressure;BME280_temperature;BME280_humidity;BME280_pressure;Samples;Min_cycle;Max_cycle;Signal;HPM_P1;HPM_P2
2022/07/09 00:01:22;;;;;;;2.43;2.23;;;22.60;99.90;;;;;;5122226;28;20543;-91
2022/07/09 00:03:48;;;;;;;3.03;2.33;;;22.60;99.90;;;;;;5111416;28;20185;-92
2022/07/09 00:06:13;;;;;;;2.70;2.50;;;22.50;99.90;;;;;;5103742;27;20575;-95
2022/07/09 00:08:39;;;;;;;2.57;2.40;;;22.40;99.90;;;;;;5110790;28;20203;-91
2022/07/09 00:11:07;;;;;;;2.47;2.30;;;22.40;99.90;;;;;;5104487;28;20175;-91
2022/07/09 00:13:33;;;;;;;2.20;2.10;;;22.40;99.90;;;;;;5107955;28;20241;-92
2022/07/09 00:15:59;;;;;;;2.03;1.93;;;22.40;99.90;;;;;;5110455;28;20431;-95
2022/07/09 00:18:24;;;;;;;2.90;2.20;;;22.30;99.90;;;;;;5106197;28;20192;-95
2022/07/09 00:20:56;;;;;;;2.00;1.90;;;22.30;99.90;;;;;;5117391;28;20176;-92
2022/07/09 00:23:22;;;;;;;2.53;2.20;;;22.30;99.90;;;;;;5107141;28;20205;-95
2022/07/09 00:25:48;;;;;;;2.37;2.17;;;22.20;99.90;;;;;;5108992;28;20503;-95
2022/07/09 00:28:15;;;;;;;1.73;1.63;;;22.20;99.90;;;;;;5104364;28;20263;-93
2022/07/09 00:30:40;;;;;;;2.60;2.03;;;22.10;99.90;;;;;;5109108;28;20208;-94
2022/07/09 00:33:09;;;;;;;2.17;1.97;;;22.10;99.90;;;;;;5114114;28;21129;-91
2022/07/09 00:35:34;;;;;;;2.40;2.20;;;22.10;99.90;;;;;;5117111;28;20206;-92
2022/07/09 00:38:00;;;;;;;2.17;2.03;;;22.00;99.90;;;;;;5114884;28;20436;-91
2022/07/09 00:40:26;;;;;;;2.53;2.23;;;21.90;99.90;;;;;;5123246;28;20180;-95
2022/07/09 00:42:52;;;;;;;1.93;1.83;;;21.90;99.90;;;;;;5131479;28;20188;-96
2022/07/09 00:45:17;;;;;;;2.97;2.50;;;21.90;99.90;;;;;;5131726;28;20183;-95
2022/07/09 00:47:43;;;;;;;2.30;2.13;;;21.80;99.90;;;;;;5121660;28;20491;-95
2022/07/09 00:50:10;;;;;;;2.80;2.00;;;21.70;99.90;;;;;;5100847;28;20177;-95
2022/07/09 00:52:38;;;;;;;1.93;1.73;;;21.60;99.90;;;;;;5097589;28;20439;-94
2022/07/09 00:55:04;;;;;;;1.97;1.87;;;21.50;99.90;;;;;;5108662;28;20404;-95
2022/07/09 00:57:31;;;;;;;2.30;2.10;;;21.50;99.90;;;;;;5116257;28;20454;-93
2022/07/09 00:59:58;;;;;;;2.40;2.20;;;21.50;99.90;;;;;;5096428;28;20405;-94
2022/07/09 01:02:24;;;;;;;2.40;2.20;;;21.50;99.90;;;;;;5096256;28;20437;-95
2022/07/09 01:04:50;;;;;;;2.40;2.13;;;21.50;99.90;;;;;;5096362;28;20548;-92
2022/07/09 01:07:16;;;;;;;2.07;1.87;;;21.50;99.90;;;;;;5103589;28;20942;-92
2022/07/09 01:09:41;;;;;;;2.23;2.03;;;21.50;99.90;;;;;;5117553;28;20547;-94
2022/07/09 01:12:08;;;;;;;1.93;1.83;;;21.50;99.90;;;;;;5119096;28;20199;-90
2022/07/09 01:14:33;;;;;;;3.00;2.30;;;21.50;99.90;;;;;;5116159;28;20183;-90
2022/07/09 01:17:01;;;;;;;2.37;2.17;;;21.50;99.90;;;;;;5115294;28;20444;-91
2022/07/09 01:19:28;;;;;;;2.93;1.93;;;21.50;99.90;;;;;;5110149;28;20183;-90
2022/07/09 01:21:55;;;;;;;2.30;2.10;;;21.50;99.90;;;;;;5103931;28;20431;-96
2022/07/09 01:24:34;;;;;;;3.80;3.10;;;21.50;99.90;;;;;;5113832;28;20457;-92
2022/07/09 01:27:00;;;;;;;2.53;2.33;;;21.50;99.90;;;;;;5106649;28;20436;-92
2022/07/09 01:29:25;;;;;;;2.87;2.67;;;21.50;99.90;;;;;;5112414;28;20455;-96
2022/07/09 01:31:51;;;;;;;2.60;2.40;;;21.40;99.90;;;;;;5116509;28;20467;-96
2022/07/09 01:34:17;;;;;;;3.83;2.97;;;21.40;99.90;;;;;;5115911;28;20211;-94
2022/07/09 01:36:44;;;;;;;2.70;2.50;;;21.40;99.90;;;;;;5116987;28;20652;-96
2022/07/09 01:39:09;;;;;;;2.80;2.60;;;21.30;99.90;;;;;;5118352;28;20432;-96
2022/07/09 01:41:35;;;;;;;2.23;2.10;;;21.30;99.90;;;;;;5117264;28;20756;-95
2022/07/09 01:44:03;;;;;;;2.70;2.30;;;21.30;99.90;;;;;;5116312;28;20628;-96
2022/07/09 01:46:29;;;;;;;2.63;2.40;;;21.30;99.90;;;;;;5115301;28;20188;-91
2022/07/09 01:48:55;;;;;;;3.20;2.00;;;21.40;99.90;;;;;;5117195;28;20483;-96
2022/07/09 01:51:22;;;;;;;2.60;2.40;;;21.40;99.90;;;;;;5115570;28;20204;-95
2022/07/09 01:53:48;;;;;;;3.07;2.77;;;21.40;99.90;;;;;;5114704;28;20192;-96
2022/07/09 01:56:13;;;;;;;2.70;2.50;;;21.40;99.90;;;;;;5115856;28;20950;-95
2022/07/09 01:58:39;;;;;;;2.50;2.30;;;21.40;99.90;;;;;;5115396;28;20442;-96
2022/07/09 02:01:05;;;;;;;2.60;2.40;;;21.50;99.90;;;;;;5115138;28;20176;-95
2022/07/09 02:03:30;;;;;;;2.03;1.83;;;21.50;99.90;;;;;;5117387;28;20240;-93
2022/07/09 02:05:59;;;;;;;2.43;2.23;;;21.50;99.90;;;;;;5115672;28;20250;-93
2022/07/09 02:08:26;;;;;;;2.33;2.10;;;21.50;99.90;;;;;;5115533;28;20506;-93
2022/07/09 02:10:52;;;;;;;2.97;2.40;;;21.40;99.90;;;;;;5103054;28;20519;-96
2022/07/09 02:13:19;;;;;;;2.00;1.90;;;21.40;99.90;;;;;;5098665;28;20474;-95
2022/07/09 02:15:45;;;;;;;2.23;2.13;;;21.40;99.90;;;;;;5097947;28;20424;-96
2022/07/09 02:18:12;;;;;;;2.57;2.37;;;21.30;99.90;;;;;;5114870;28;20455;-93
2022/07/09 02:20:38;;;;;;;3.07;2.77;;;21.40;99.90;;;;;;5114200;28;20183;-96
2022/07/09 02:23:03;;;;;;;2.17;1.97;;;21.40;99.90;;;;;;5115198;28;20455;-94
2022/07/09 02:25:29;;;;;;;2.33;2.13;;;21.40;99.90;;;;;;5116033;28;20168;-93
2022/07/09 02:27:55;;;;;;;1.83;1.50;;;21.30;99.90;;;;;;5110972;28;20226;-95
2022/07/09 02:30:21;;;;;;;2.97;2.77;;;21.30;99.90;;;;;;5094028;28;20508;-94
2022/07/09 02:32:46;;;;;;;2.50;2.30;;;21.30;99.90;;;;;;5094302;28;20295;-93
2022/07/09 02:35:12;;;;;;;2.40;2.20;;;21.30;99.90;;;;;;5094540;28;20181;-93
2022/07/09 02:37:38;;;;;;;3.17;2.60;;;21.30;99.90;;;;;;5095861;28;20204;-93
2022/07/09 02:40:05;;;;;;;2.97;2.60;;;21.30;99.90;;;;;;5094755;28;20176;-93
2022/07/09 02:42:31;;;;;;;2.70;2.47;;;21.30;99.90;;;;;;5095678;28;20302;-96
2022/07/09 02:44:59;;;;;;;2.43;2.23;;;21.30;99.90;;;;;;5096605;28;20411;-96
2022/07/09 02:47:25;;;;;;;2.50;2.20;;;21.30;99.90;;;;;;5095784;28;20666;-93
2022/07/09 02:49:50;;;;;;;2.00;1.90;;;21.30;99.90;;;;;;5094819;28;20515;-94
2022/07/09 02:52:17;;;;;;;2.40;2.20;;;21.30;99.90;;;;;;5096503;28;20201;-96
2022/07/09 02:54:43;;;;;;;1.90;1.80;;;21.30;99.90;;;;;;5097241;28;20182;-91
2022/07/09 02:57:09;;;;;;;1.90;1.80;;;21.30;99.90;;;;;;5094742;28;20798;-96
2022/07/09 02:59:35;;;;;;;2.23;1.80;;;21.40;99.90;;;;;;5093039;28;20579;-91
2022/07/09 03:02:01;;;;;;;2.17;1.97;;;21.40;99.90;;;;;;5094430;28;20421;-92
2022/07/09 03:04:27;;;;;;;2.33;2.03;;;21.30;99.90;;;;;;5095891;28;20185;-95
2022/07/09 03:06:52;;;;;;;2.93;1.63;;;21.30;99.90;;;;;;5093577;28;20456;-96
2022/07/09 03:09:18;;;;;;;2.20;2.00;;;21.30;99.90;;;;;;5095523;28;20475;-94
2022/07/09 03:11:44;;;;;;;2.30;1.93;;;21.30;99.90;;;;;;5097481;28;20196;-94
2022/07/09 03:14:09;;;;;;;2.00;1.80;;;21.20;99.90;;;;;;5105021;28;20191;-94
2022/07/09 03:16:35;;;;;;;1.83;1.50;;;21.20;99.90;;;;;;5113440;28;20211;-92
2022/07/09 03:19:01;;;;;;;1.87;1.60;;;21.20;99.90;;;;;;5114116;28;20192;-94
2022/07/09 03:21:26;;;;;;;3.83;1.90;;;21.10;99.90;;;;;;5116046;28;20273;-92
2022/07/09 03:23:52;;;;;;;1.73;1.63;;;21.10;99.90;;;;;;5114531;28;20647;-92
2022/07/09 03:26:18;;;;;;;1.90;1.80;;;21.10;99.90;;;;;;5115880;28;20171;-96
2022/07/09 03:28:43;;;;;;;2.00;1.80;;;21.10;99.90;;;;;;5116141;28;20246;-92
2022/07/09 03:31:09;;;;;;;1.97;1.87;;;21.10;99.90;;;;;;5111994;28;20588;-92
2022/07/09 03:33:35;;;;;;;2.23;2.03;;;21.10;99.90;;;;;;5113517;28;20180;-91
2022/07/09 03:36:01;;;;;;;1.80;1.70;;;21.20;99.90;;;;;;5115537;28;20179;-93
2022/07/09 03:38:27;;;;;;;1.97;1.77;;;21.20;99.90;;;;;;5113994;28;20210;-94
2022/07/09 03:40:53;;;;;;;2.33;2.13;;;21.20;99.90;;;;;;5113222;28;20428;-94
2022/07/09 03:43:19;;;;;;;2.43;2.20;;;21.20;99.90;;;;;;5117934;28;20830;-93
2022/07/09 03:45:45;;;;;;;1.63;1.53;;;21.20;99.90;;;;;;5110832;28;20282;-94
2022/07/09 03:48:10;;;;;;;2.47;2.27;;;21.20;99.90;;;;;;5113445;28;20483;-93
2022/07/09 03:50:36;;;;;;;1.97;1.87;;;21.20;99.90;;;;;;5113144;28;20177;-95
2022/07/09 03:53:02;;;;;;;2.40;2.20;;;21.20;99.90;;;;;;5093164;28;20659;-94
2022/07/09 03:55:29;;;;;;;1.73;1.63;;;21.20;99.90;;;;;;5093321;28;20263;-93
2022/07/09 03:57:54;;;;;;;1.70;1.60;;;21.20;99.90;;;;;;5095005;28;20229;-93
2022/07/09 04:00:20;;;;;;;2.10;2.00;;;21.20;99.90;;;;;;5096854;28;20499;-93
2022/07/09 04:02:46;;;;;;;1.90;1.70;;;21.20;99.90;;;;;;5094350;28;20208;-94
2022/07/09 04:05:11;;;;;;;2.50;2.30;;;21.20;99.90;;;;;;5092765;28;20184;-95
2022/07/09 04:07:37;;;;;;;1.87;1.77;;;21.20;99.90;;;;;;5098544;28;20275;-94
2022/07/09 04:10:04;;;;;;;2.13;1.90;;;21.20;99.90;;;;;;5093246;28;20172;-92
2022/07/09 04:12:29;;;;;;;2.77;2.50;;;21.20;99.90;;;;;;5091550;28;20196;-93
2022/07/09 04:14:55;;;;;;;2.57;2.37;;;21.20;99.90;;;;;;5092737;28;20459;-94
2022/07/09 04:17:21;;;;;;;2.30;2.20;;;21.20;99.90;;;;;;5108634;28;20214;-91
2022/07/09 04:19:47;;;;;;;2.33;2.10;;;21.20;99.90;;;;;;5113180;28;20183;-92
2022/07/09 04:22:12;;;;;;;2.23;2.03;;;21.20;99.90;;;;;;5111963;28;20464;-92
2022/07/09 04:24:38;;;;;;;3.73;2.47;;;21.20;99.90;;;;;;5111866;28;20171;-93
2022/07/09 04:27:04;;;;;;;2.43;2.03;;;21.20;99.90;;;;;;5092870;28;20251;-95
2022/07/09 04:29:29;;;;;;;2.63;2.40;;;21.20;99.90;;;;;;5094245;28;20209;-92
2022/07/09 04:31:55;;;;;;;2.50;2.07;;;21.20;99.90;;;;;;5092949;28;20440;-95
2022/07/09 04:34:21;;;;;;;3.47;2.27;;;21.30;99.90;;;;;;5091604;28;20180;-91
2022/07/09 04:36:46;;;;;;;2.53;2.33;;;21.30;99.90;;;;;;5091711;28;20264;-94
2022/07/09 04:39:12;;;;;;;2.57;2.37;;;21.30;99.90;;;;;;5091659;28;20184;-93
2022/07/09 04:41:38;;;;;;;2.50;2.30;;;21.30;99.90;;;;;;5097571;28;20198;-91
2022/07/09 04:44:04;;;;;;;2.13;1.93;;;21.30;99.90;;;;;;5114700;28;20436;-94
2022/07/09 04:46:32;;;;;;;2.27;2.03;;;21.30;99.90;;;;;;5116678;28;20199;-95
2022/07/09 04:48:57;;;;;;;2.83;2.13;;;21.30;99.90;;;;;;5116785;28;20222;-95
2022/07/09 04:51:23;;;;;;;2.40;2.20;;;21.40;99.90;;;;;;5117285;28;20798;-93
2022/07/09 04:53:49;;;;;;;5.70;2.40;;;21.40;99.90;;;;;;5099148;28;20208;-95
2022/07/09 04:56:14;;;;;;;3.80;2.70;;;21.40;99.90;;;;;;5096250;28;20183;-94
2022/07/09 04:58:51;;;;;;;6.80;2.13;;;21.40;99.90;;;;;;5096776;28;20267;-95
2022/07/09 05:01:21;;;;;;;2.33;2.13;;;21.40;99.90;;;;;;5097350;28;20602;-92
2022/07/09 05:03:47;;;;;;;3.57;2.50;;;21.40;99.90;;;;;;5096201;28;20439;-95
2022/07/09 05:06:14;;;;;;;3.63;2.97;;;21.40;99.90;;;;;;5095190;28;20986;-92
2022/07/09 05:08:40;;;;;;;2.00;1.90;;;21.40;99.90;;;;;;5095751;28;20569;-94
2022/07/09 05:11:06;;;;;;;3.33;2.10;;;21.40;99.90;;;;;;5099744;28;20561;-94
2022/07/09 05:13:32;;;;;;;2.80;1.87;;;21.40;99.90;;;;;;5122651;27;20932;-93
2022/07/09 05:15:58;;;;;;;1.80;1.70;;;21.40;99.90;;;;;;5113822;28;21015;-95
2022/07/09 05:18:24;;;;;;;2.23;2.00;;;21.50;99.90;;;;;;5103999;28;20460;-94
2022/07/09 05:20:50;;;;;;;2.60;2.40;;;21.50;99.90;;;;;;5104101;28;20202;-93
2022/07/09 05:23:15;;;;;;;6.10;2.40;;;21.60;99.90;;;;;;5094887;28;20200;-94
2022/07/09 05:25:42;;;;;;;2.60;2.10;;;21.60;99.90;;;;;;5096288;28;20786;-93
2022/07/09 05:28:08;;;;;;;2.43;2.10;;;21.70;99.90;;;;;;5096334;28;20224;-93
2022/07/09 05:30:37;;;;;;;3.57;2.70;;;21.70;99.90;;;;;;5098553;28;20458;-94
2022/07/09 05:33:06;;;;;;;3.67;2.70;;;21.80;99.90;;;;;;5098780;28;20620;-94
2022/07/09 05:35:32;;;;;;;1.90;1.80;;;21.80;99.90;;;;;;5097298;28;20408;-94
2022/07/09 05:37:57;;;;;;;2.70;2.50;;;21.80;99.90;;;;;;5096853;28;20461;-93
2022/07/09 05:40:23;;;;;;;2.90;2.53;;;21.80;99.90;;;;;;5097129;28;20267;-93
2022/07/09 05:42:49;;;;;;;2.70;2.07;;;21.90;99.90;;;;;;5098745;28;20281;-93
2022/07/09 05:45:15;;;;;;;3.23;1.87;;;21.90;99.90;;;;;;5105638;28;20221;-95
2022/07/09 05:47:41;;;;;;;2.20;1.80;;;21.90;99.90;;;;;;5118138;28;20436;-95
2022/07/09 05:50:11;;;;;;;2.73;2.03;;;21.90;99.90;;;;;;5119065;28;20696;-93
2022/07/09 05:52:37;;;;;;;2.27;2.07;;;21.90;99.90;;;;;;5108799;28;20461;-94
2022/07/09 05:55:03;;;;;;;7.50;2.37;;;22.00;99.90;;;;;;5099261;28;20881;-92
2022/07/09 05:57:29;;;;;;;2.70;1.90;;;22.00;99.90;;;;;;5093679;28;20234;-93
2022/07/09 05:59:55;;;;;;;4.97;2.43;;;22.10;99.90;;;;;;5095852;28;20959;-93
2022/07/09 06:02:22;;;;;;;2.30;2.10;;;22.10;99.90;;;;;;5095396;28;21048;-92
2022/07/09 06:04:48;;;;;;;2.63;2.30;;;22.20;99.90;;;;;;5095273;28;20417;-94
2022/07/09 06:07:13;;;;;;;2.93;2.60;;;22.20;99.90;;;;;;5099403;28;20506;-96
2022/07/09 06:09:39;;;;;;;2.10;1.90;;;22.20;99.90;;;;;;5094176;28;20223;-93
2022/07/09 06:12:05;;;;;;;2.63;2.13;;;22.20;99.90;;;;;;5095042;28;20236;-93
2022/07/09 06:14:31;;;;;;;2.17;1.97;;;22.30;99.90;;;;;;5096281;28;20177;-92
2022/07/09 06:16:56;;;;;;;7.67;2.57;;;22.40;99.90;;;;;;5108167;28;20432;-93
2022/07/09 06:19:23;;;;;;;5.30;3.30;;;22.40;99.90;;;;;;5112973;28;20233;-94
2022/07/09 06:21:48;;;;;;;2.07;1.97;;;22.40;99.90;;;;;;5113495;28;20195;-96
2022/07/09 06:24:14;;;;;;;4.27;2.37;;;22.40;99.90;;;;;;5114082;28;20440;-92
2022/07/09 06:26:40;;;;;;;2.83;2.27;;;22.40;99.90;;;;;;5114680;28;20683;-92
2022/07/09 06:29:05;;;;;;;4.13;2.27;;;22.40;99.90;;;;;;5113200;28;20268;-96
2022/07/09 06:31:31;;;;;;;3.00;2.70;;;22.50;99.90;;;;;;5113819;28;20676;-95
2022/07/09 06:33:58;;;;;;;2.73;2.53;;;22.40;99.90;;;;;;5109993;28;20190;-95
2022/07/09 06:36:24;;;;;;;4.33;2.47;;;22.50;99.90;;;;;;5093120;28;20211;-96
2022/07/09 06:41:33;;;;;;;2.40;2.13;;;22.50;99.90;;;;;;5093939;28;20502;-93
2022/07/09 06:43:59;;;;;;;2.77;2.53;;;22.50;99.90;;;;;;5092649;28;20917;-96
2022/07/09 06:46:24;;;;;;;2.03;1.93;;;22.50;99.90;;;;;;5094677;28;20193;-96
2022/07/09 06:48:50;;;;;;;2.10;1.90;;;22.50;99.90;;;;;;5092525;28;20212;-92
2022/07/09 06:51:16;;;;;;;2.10;1.90;;;22.60;99.90;;;;;;5093484;28;20191;-95
2022/07/09 06:53:42;;;;;;;2.33;2.13;;;22.60;99.90;;;;;;5095576;28;20541;-93
2022/07/09 06:56:07;;;;;;;2.50;2.30;;;22.60;99.90;;;;;;5094510;28;20545;-93
2022/07/09 06:58:33;;;;;;;2.30;2.10;;;22.70;99.90;;;;;;5099271;28;20177;-93
2022/07/09 07:00:59;;;;;;;2.03;1.93;;;22.70;99.90;;;;;;5094623;28;20268;-93
2022/07/09 07:03:24;;;;;;;2.10;1.90;;;22.80;99.90;;;;;;5094145;28;20197;-92
2022/07/09 07:05:50;;;;;;;2.60;2.40;;;22.80;99.90;;;;;;5093368;28;20232;-92
2022/07/09 07:08:17;;;;;;;2.00;1.80;;;22.90;99.90;;;;;;5094337;28;20673;-95
2022/07/09 07:10:43;;;;;;;1.73;1.63;;;22.90;99.90;;;;;;5095364;28;20181;-92
2022/07/09 07:13:10;;;;;;;1.93;1.73;;;22.90;99.90;;;;;;5094205;28;20533;-96
2022/07/09 07:15:36;;;;;;;1.40;1.30;;;22.90;99.90;;;;;;5095132;28;20168;-96
2022/07/09 07:18:02;;;;;;;2.40;1.93;;;22.90;99.90;;;;;;5094177;28;20483;-96
2022/07/09 07:20:27;;;;;;;1.73;1.63;;;23.00;99.90;;;;;;5094377;28;20196;-96
2022/07/09 07:22:53;;;;;;;2.20;2.00;;;23.00;99.90;;;;;;5096895;28;20196;-95
2022/07/09 07:25:19;;;;;;;2.10;1.60;;;23.10;99.90;;;;;;5096141;28;20184;-93
2022/07/09 07:27:44;;;;;;;1.80;1.70;;;23.10;99.90;;;;;;5094839;28;20657;-96
2022/07/09 07:30:10;;;;;;;2.30;2.10;;;23.10;99.90;;;;;;5094065;28;20657;-96
2022/07/09 07:32:36;;;;;;;1.90;1.80;;;23.20;99.90;;;;;;5093926;28;20550;-96
2022/07/09 07:35:02;;;;;;;2.30;1.97;;;23.20;99.90;;;;;;5096210;28;20177;-95
2022/07/09 07:37:28;;;;;;;1.70;1.60;;;23.20;99.90;;;;;;5094043;28;20202;-92
2022/07/09 07:39:55;;;;;;;2.33;1.67;;;23.30;99.90;;;;;;5093950;28;20474;-96
2022/07/09 07:42:20;;;;;;;2.23;2.03;;;23.40;99.90;;;;;;5093615;28;20433;-93
2022/07/09 07:44:46;;;;;;;1.93;1.73;;;23.40;99.90;;;;;;5095029;28;20813;-96
2022/07/09 07:47:12;;;;;;;2.30;2.10;;;23.50;99.90;;;;;;5096175;28;20194;-95
2022/07/09 07:49:38;;;;;;;2.57;1.80;;;23.50;99.70;;;;;;5094959;28;20708;-96
2022/07/09 07:52:05;;;;;;;1.93;1.83;;;23.60;99.40;;;;;;5093554;28;20439;-96
2022/07/09 07:54:31;;;;;;;2.23;2.03;;;23.60;99.50;;;;;;5093755;28;20221;-96
2022/07/09 07:56:57;;;;;;;2.30;1.93;;;23.60;99.30;;;;;;5093607;28;20498;-96
2022/07/09 07:59:23;;;;;;;3.87;2.20;;;23.70;99.40;;;;;;5095921;28;20895;-94
2022/07/09 08:01:49;;;;;;;4.40;2.10;;;23.70;98.80;;;;;;5099842;28;20405;-93
2022/07/09 08:04:14;;;;;;;3.07;2.10;;;23.80;98.70;;;;;;5094608;28;20250;-96
2022/07/09 08:06:40;;;;;;;2.20;2.10;;;23.80;98.30;;;;;;5093430;28;20602;-96
2022/07/09 08:09:06;;;;;;;1.97;1.87;;;23.90;98.30;;;;;;5093609;28;20477;-94
2022/07/09 08:11:31;;;;;;;2.73;2.07;;;23.90;98.20;;;;;;5093694;28;20203;-93
2022/07/09 08:13:57;;;;;;;1.97;1.87;;;24.00;98.40;;;;;;5095408;28;20201;-96
2022/07/09 08:16:23;;;;;;;1.90;1.70;;;24.00;98.20;;;;;;5094746;28;20203;-93
2022/07/09 08:18:48;;;;;;;4.07;1.77;;;24.10;98.40;;;;;;5097827;28;20173;-95
2022/07/09 08:21:14;;;;;;;2.13;1.93;;;24.20;98.20;;;;;;5097472;28;20210;-96
2022/07/09 08:23:53;;;;;;;1.50;1.40;;;24.30;97.80;;;;;;5098387;28;20630;-93
2022/07/09 08:26:21;;;;;;;1.77;1.63;;;24.40;97.60;;;;;;5098871;28;20179;-95
2022/07/09 08:28:47;;;;;;;1.60;1.47;;;24.50;97.80;;;;;;5097234;28;20466;-96
2022/07/09 08:31:16;;;;;;;6.63;2.03;;;24.60;97.90;;;;;;5097417;28;20484;-96
2022/07/09 08:33:42;;;;;;;1.87;1.77;;;24.70;97.70;;;;;;5099285;28;20415;-96
2022/07/09 08:36:11;;;;;;;1.67;1.57;;;24.70;96.00;;;;;;5100065;28;20476;-92
2022/07/09 08:38:37;;;;;;;1.77;1.67;;;24.80;95.70;;;;;;5099650;28;20518;-96
2022/07/09 08:41:05;;;;;;;1.57;1.47;;;24.90;96.40;;;;;;5097143;28;20533;-96
2022/07/09 08:43:35;;;;;;;1.93;1.70;;;24.90;95.30;;;;;;5097048;28;20984;-96
2022/07/09 08:46:01;;;;;;;1.77;1.67;;;25.00;95.10;;;;;;5100291;28;20473;-93
2022/07/09 08:48:36;;;;;;;2.50;2.00;;;25.10;95.60;;;;;;5116872;28;20479;-95
2022/07/09 08:51:03;;;;;;;1.87;1.60;;;25.20;95.20;;;;;;5120875;28;20426;-93
2022/07/09 08:53:29;;;;;;;2.57;2.20;;;25.30;95.10;;;;;;5116719;28;20406;-96
2022/07/09 08:55:56;;;;;;;3.20;2.00;;;25.30;95.30;;;;;;5117616;28;20946;-93
2022/07/09 08:58:23;;;;;;;1.87;1.77;;;25.40;94.60;;;;;;5118090;28;20943;-96
2022/07/09 09:00:50;;;;;;;2.13;1.90;;;25.40;94.20;;;;;;5122113;28;20416;-96
2022/07/09 09:03:17;;;;;;;2.17;1.93;;;25.50;93.80;;;;;;5119412;28;20431;-96
2022/07/09 09:05:43;;;;;;;2.77;2.00;;;25.50;93.90;;;;;;5117931;28;20470;-93
2022/07/09 09:08:27;;;;;;;2.10;1.87;;;25.60;93.30;;;;;;5117922;28;20825;-96
2022/07/09 09:10:53;;;;;;;2.67;2.10;;;25.60;93.20;;;;;;5117109;28;20426;-93
2022/07/09 09:13:19;;;;;;;2.00;1.80;;;25.70;93.20;;;;;;5116826;28;20436;-96
2022/07/09 09:15:45;;;;;;;1.70;1.60;;;25.70;92.90;;;;;;5118913;27;20202;-96
2022/07/09 09:18:11;;;;;;;1.97;1.60;;;25.80;92.50;;;;;;5116517;28;20222;-93
2022/07/09 09:20:38;;;;;;;3.90;1.73;;;25.90;92.70;;;;;;5116887;28;20940;-92
2022/07/09 09:23:09;;;;;;;2.27;1.87;;;26.00;92.80;;;;;;5117624;28;20832;-93
2022/07/09 09:25:35;;;;;;;2.27;1.80;;;26.00;92.70;;;;;;5117089;28;20436;-96
2022/07/09 09:28:01;;;;;;;1.93;1.83;;;26.00;92.00;;;;;;5116455;28;20468;-95
2022/07/09 09:30:29;;;;;;;1.73;1.63;;;26.10;92.30;;;;;;5117943;28;20187;-92
2022/07/09 09:32:59;;;;;;;2.00;1.87;;;26.20;91.80;;;;;;5116368;28;20520;-93
2022/07/09 09:35:27;;;;;;;2.17;1.57;;;26.30;91.90;;;;;;5117528;28;20420;-93
2022/07/09 09:37:53;;;;;;;1.20;1.20;;;26.30;91.60;;;;;;5116031;28;20435;-94
2022/07/09 09:40:19;;;;;;;2.67;2.23;;;26.30;92.30;;;;;;5116251;28;20446;-93
2022/07/09 09:42:45;;;;;;;1.80;1.47;;;26.40;92.30;;;;;;5118488;27;20416;-92
2022/07/09 09:45:15;;;;;;;3.30;1.57;;;26.40;91.80;;;;;;5121100;28;20187;-94
2022/07/09 09:48:00;;;;;;;3.67;2.23;;;26.50;91.70;;;;;;5119918;28;20487;-93
2022/07/09 09:50:26;;;;;;;1.60;1.50;;;26.60;90.90;;;;;;5116386;28;20519;-93
2022/07/09 09:52:54;;;;;;;1.70;1.60;;;26.60;90.10;;;;;;5115857;28;20864;-96
2022/07/09 09:55:21;;;;;;;1.90;1.80;;;26.60;89.70;;;;;;5117480;28;20202;-94
2022/07/09 09:57:48;;;;;;;1.90;1.80;;;26.70;89.90;;;;;;5116007;28;20974;-93
2022/07/09 10:00:15;;;;;;;2.13;2.00;;;26.80;90.40;;;;;;5117263;28;20419;-93
2022/07/09 10:02:46;;;;;;;2.47;2.03;;;26.80;90.80;;;;;;5116681;28;20481;-93
2022/07/09 10:05:13;;;;;;;2.37;2.17;;;26.90;90.80;;;;;;5116799;28;20479;-94
2022/07/09 10:07:39;;;;;;;2.23;2.10;;;26.90;90.60;;;;;;5117172;28;20456;-96
2022/07/09 10:10:06;;;;;;;1.93;1.83;;;27.00;90.00;;;;;;5115665;28;20461;-96
2022/07/09 10:12:36;;;;;;;3.97;1.90;;;27.00;89.50;;;;;;5115603;28;20840;-96
2022/07/09 10:15:20;;;;;;;4.43;2.23;;;27.00;89.50;;;;;;5115810;28;20517;-94
2022/07/09 10:17:46;;;;;;;2.43;2.23;;;27.00;89.50;;;;;;5115281;28;20440;-94
2022/07/09 10:20:12;;;;;;;5.07;1.70;;;27.00;89.10;;;;;;5117349;28;20430;-95
2022/07/09 10:22:40;;;;;;;1.90;1.70;;;27.00;90.10;;;;;;5115356;28;20196;-93
2022/07/09 10:25:08;;;;;;;1.83;1.73;;;27.00;89.40;;;;;;5116658;28;20172;-96
2022/07/09 10:27:44;;;;;;;3.00;2.70;;;27.10;89.90;;;;;;5115237;28;20510;-96
2022/07/09 10:30:35;;;;;;;2.20;2.00;;;27.10;90.50;;;;;;5115412;28;20474;-93
2022/07/09 10:33:06;;;;;;;4.93;2.30;;;27.10;89.10;;;;;;5116574;28;20458;-93
2022/07/09 10:35:40;;;;;;;2.03;1.87;;;27.10;88.50;;;;;;5116357;28;20466;-94
2022/07/09 10:38:07;;;;;;;3.00;2.30;;;27.00;88.10;;;;;;5115336;28;20465;-96
2022/07/09 10:40:44;;;;;;;1.97;1.87;;;27.00;88.30;;;;;;5116389;28;20416;-95
2022/07/09 10:43:11;;;;;;;3.10;2.23;;;26.90;87.50;;;;;;5115262;28;20427;-93
2022/07/09 10:45:47;;;;;;;2.90;2.30;;;26.80;88.30;;;;;;5120328;28;20424;-93
2022/07/09 10:48:14;;;;;;;1.87;1.77;;;26.70;88.80;;;;;;5115607;28;20899;-96
2022/07/09 10:50:42;;;;;;;2.00;1.90;;;26.60;89.50;;;;;;5118490;28;20424;-93
2022/07/09 10:53:09;;;;;;;4.77;2.10;;;26.60;89.70;;;;;;5114841;28;20432;-96
2022/07/09 10:55:35;;;;;;;1.87;1.77;;;26.50;89.70;;;;;;5114733;28;20967;-96
2022/07/09 10:58:02;;;;;;;2.20;2.10;;;26.40;89.10;;;;;;5116552;28;20432;-95
2022/07/09 11:00:30;;;;;;;2.10;2.00;;;26.40;89.50;;;;;;5116197;28;20484;-94
2022/07/09 11:02:57;;;;;;;2.30;2.03;;;26.40;89.60;;;;;;5115925;28;20971;-95
2022/07/09 11:05:25;;;;;;;1.80;1.70;;;26.30;89.70;;;;;;5114903;28;20455;-96
2022/07/09 11:07:55;;;;;;;2.10;1.90;;;26.30;90.00;;;;;;5115984;28;20436;-93
2022/07/09 11:10:21;;;;;;;2.03;1.93;;;26.30;90.00;;;;;;5115725;28;20435;-96
2022/07/09 11:12:48;;;;;;;2.37;2.17;;;26.30;90.10;;;;;;5117653;28;20834;-92
2022/07/09 11:15:18;;;;;;;3.17;2.40;;;26.20;90.00;;;;;;5115017;28;20813;-93
2022/07/09 11:17:53;;;;;;;2.13;1.93;;;26.20;90.00;;;;;;5116918;28;20427;-93
2022/07/09 11:20:19;;;;;;;2.00;1.80;;;26.20;89.70;;;;;;5114393;28;20427;-92
2022/07/09 11:22:48;;;;;;;2.83;2.33;;;26.20;89.00;;;;;;5117155;28;20477;-92
2022/07/09 11:25:17;;;;;;;1.63;1.53;;;26.10;88.80;;;;;;5116267;28;20178;-96
2022/07/09 11:27:43;;;;;;;2.23;2.10;;;26.10;88.60;;;;;;5115261;28;20484;-93
2022/07/09 11:30:14;;;;;;;2.40;1.80;;;26.00;88.80;;;;;;5115470;28;20947;-96
2022/07/09 11:32:44;;;;;;;2.33;2.07;;;26.00;89.40;;;;;;5116740;28;20440;-93
2022/07/09 11:35:11;;;;;;;1.73;1.63;;;26.00;89.50;;;;;;5116689;28;20783;-95
2022/07/09 11:37:37;;;;;;;4.73;1.90;;;26.00;90.00;;;;;;5117397;28;20452;-93
2022/07/09 11:40:03;;;;;;;2.00;1.80;;;26.00;90.60;;;;;;5115413;28;20406;-93
2022/07/09 11:42:29;;;;;;;2.30;2.20;;;26.10;90.40;;;;;;5115262;28;20432;-92
2022/07/09 11:44:59;;;;;;;2.50;1.70;;;26.10;90.50;;;;;;5114267;28;20424;-93
2022/07/09 11:47:35;;;;;;;2.27;2.10;;;26.10;90.20;;;;;;5114264;28;20199;-96
2022/07/09 11:50:10;;;;;;;2.90;2.20;;;26.10;90.20;;;;;;5117919;28;20562;-93
2022/07/09 11:52:46;;;;;;;4.27;2.17;;;26.20;90.40;;;;;;5116518;28;20939;-96
2022/07/09 11:55:14;;;;;;;1.80;1.70;;;26.20;90.30;;;;;;5118402;28;20427;-93
2022/07/09 11:57:51;;;;;;;2.10;1.93;;;26.20;90.30;;;;;;5118266;28;21029;-93
2022/07/09 12:00:28;;;;;;;2.17;1.73;;;26.30;90.30;;;;;;5119460;28;20495;-93
2022/07/09 12:02:55;;;;;;;2.30;2.10;;;26.40;89.60;;;;;;5119502;28;20423;-93
2022/07/09 12:05:32;;;;;;;2.33;2.17;;;26.40;89.80;;;;;;5119079;28;20751;-96
2022/07/09 12:08:03;;;;;;;2.20;2.10;;;26.40;89.60;;;;;;5119049;28;20506;-96
2022/07/09 12:10:34;;;;;;;1.70;1.60;;;26.50;89.80;;;;;;5118452;28;20419;-96
2022/07/09 12:13:01;;;;;;;3.67;2.07;;;26.50;90.10;;;;;;5121354;28;20435;-96
2022/07/09 12:15:27;;;;;;;2.80;2.37;;;26.60;89.20;;;;;;5119353;28;20411;-96
2022/07/09 12:17:57;;;;;;;2.50;2.30;;;26.60;89.00;;;;;;5118981;28;20422;-93
2022/07/09 12:20:25;;;;;;;3.23;2.20;;;26.70;89.30;;;;;;5117948;28;20485;-95
2022/07/09 12:22:52;;;;;;;2.80;2.13;;;26.80;89.20;;;;;;5118975;28;20853;-93
2022/07/09 12:25:18;;;;;;;2.00;1.90;;;26.80;89.20;;;;;;5118023;28;20514;-94
2022/07/09 12:27:44;;;;;;;2.17;2.07;;;26.90;88.00;;;;;;5122933;28;20427;-95
2022/07/09 12:30:10;;;;;;;1.90;1.80;;;27.00;87.60;;;;;;5121414;28;20489;-96
2022/07/09 12:32:36;;;;;;;2.10;1.90;;;27.10;87.90;;;;;;5122042;28;20199;-93
2022/07/09 12:35:03;;;;;;;2.40;2.20;;;27.10;86.90;;;;;;5117617;28;20419;-94
2022/07/09 12:37:29;;;;;;;2.60;2.23;;;27.10;86.90;;;;;;5118578;28;20192;-93
2022/07/09 12:39:55;;;;;;;5.63;1.83;;;27.20;87.50;;;;;;5121706;28;20526;-93
2022/07/09 12:42:21;;;;;;;2.40;2.17;;;27.10;86.10;;;;;;5117364;28;20565;-93
2022/07/09 12:44:47;;;;;;;2.90;2.00;;;27.10;86.30;;;;;;5117466;28;20182;-96
2022/07/09 12:47:14;;;;;;;2.20;2.10;;;27.10;85.30;;;;;;5117298;28;20470;-96
2022/07/09 12:49:39;;;;;;;4.97;1.90;;;27.10;84.20;;;;;;5118128;28;20475;-96